sensor_id;sensor_type;location;lat;lon;timestamp;temperature;humidity
13794;DHT22;31160;49.500;7.772;2023-11-18T00:02:25;7.00;99.90
13794;DHT22;31160;49.500;7.772;2023-11-18T00:04:52;6.90;99.90
13794;DHT22;31160;49.500;7.772;2023-11-18T00:07:19;6.90;99.90
13794;DHT22;31160;49.500;7.772;2023-11-18T00:09:46;7.00;99.90
13794;DHT22;31160;49.500;7.772;2023-11-18T00:12:13;7.10;99.90
13794;DHT22;31160;49.500;7.772;2023-11-18T00:14:40;7.10;99.90
13794;DHT22;31160;49.500;7.772;2023-11-18T00:17:09;7.10;99.90
13794;DHT22;31160;49.500;7.772;2023-11-18T00:19:36;7.10;99.90
13794;DHT22;31160;49.500;7.772;2023-11-18T00:22:03;7.10;99.90
13794;DHT22;31160;49.500;7.772;2023-11-18T00:24:30;7.10;99.90
13794;DHT22;31160;49.500;7.772;2023-11-18T00:27:01;7.20;99.90
13794;DHT22;31160;49.500;7.772;2023-11-18T00:29:35;7.20;99.90
13794;DHT22;31160;49.500;7.772;2023-11-18T00:32:04;7.30;99.90
13794;DHT22;31160;49.500;7.772;2023-11-18T00:34:31;7.30;99.90
13794;DHT22;31160;49.500;7.772;2023-11-18T00:36:58;7.30;99.90
13794;DHT22;31160;49.500;7.772;2023-11-18T00:39:26;7.40;99.90
13794;DHT22;31160;49.500;7.772;2023-11-18T00:41:54;7.40;99.90
13794;DHT22;31160;49.500;7.772;2023-11-18T00:44:22;7.40;99.90
13794;DHT22;31160;49.500;7.772;2023-11-18T00:46:49;7.40;99.90
13794;DHT22;31160;49.500;7.772;2023-11-18T00:49:16;7.30;99.90
13794;DHT22;31160;49.500;7.772;2023-11-18T00:51:44;7.30;99.90
13794;DHT22;31160;49.500;7.772;2023-11-18T00:54:10;7.30;99.90
13794;DHT22;31160;49.500;7.772;2023-11-18T00:56:38;7.30;99.90
13794;DHT22;31160;49.500;7.772;2023-11-18T00:59:05;7.30;99.90
13794;DHT22;31160;49.500;7.772;2023-11-18T01:01:33;7.30;99.90
13794;DHT22;31160;49.500;7.772;2023-11-18T01:04:01;7.30;99.90
13794;DHT22;31160;49.500;7.772;2023-11-18T01:06:28;7.30;99.90
13794;DHT22;31160;49.500;7.772;2023-11-18T01:08:54;7.30;99.90
13794;DHT22;31160;49.500;7.772;2023-11-18T01:11:21;7.30;99.90
13794;DHT22;31160;49.500;7.772;2023-11-18T01:13:51;7.30;99.90
13794;DHT22;31160;49.500;7.772;2023-11-18T01:16:18;7.40;99.90
13794;DHT22;31160;49.500;7.772;2023-11-18T01:18:46;7.40;99.90
13794;DHT22;31160;49.500;7.772;2023-11-18T01:21:13;7.40;99.90
13794;DHT22;31160;49.500;7.772;2023-11-18T01:23:40;7.40;99.90
13794;DHT22;31160;49.500;7.772;2023-11-18T01:26:11;7.40;99.90
13794;DHT22;31160;49.500;7.772;2023-11-18T01:28:39;7.40;99.90
13794;DHT22;31160;49.500;7.772;2023-11-18T01:31:10;7.50;99.90
13794;DHT22;31160;49.500;7.772;2023-11-18T01:33:37;7.50;99.90
13794;DHT22;31160;49.500;7.772;2023-11-18T01:36:07;7.50;99.90
13794;DHT22;31160;49.500;7.772;2023-11-18T01:38:37;7.50;99.90
13794;DHT22;31160;49.500;7.772;2023-11-18T01:41:07;7.50;99.90
13794;DHT22;31160;49.500;7.772;2023-11-18T01:43:35;7.50;99.90
13794;DHT22;31160;49.500;7.772;2023-11-18T01:46:03;7.50;99.90
13794;DHT22;31160;49.500;7.772;2023-11-18T01:48:32;7.50;99.90
13794;DHT22;31160;49.500;7.772;2023-11-18T01:51:03;7.50;99.90
13794;DHT22;31160;49.500;7.772;2023-11-18T01:53:31;7.50;99.90
13794;DHT22;31160;49.500;7.772;2023-11-18T01:55:59;7.60;99.90
13794;DHT22;31160;49.500;7.772;2023-11-18T01:58:26;7.50;99.90
13794;DHT22;31160;49.500;7.772;2023-11-18T02:00:55;7.60;99.90
13794;DHT22;31160;49.500;7.772;2023-11-18T02:03:22;7.60;99.90
13794;DHT22;31160;49.500;7.772;2023-11-18T02:05:49;7.60;99.90
13794;DHT22;31160;49.500;7.772;2023-11-18T02:08:16;7.60;99.90
13794;DHT22;31160;49.500;7.772;2023-11-18T02:10:55;7.60;99.90
13794;DHT22;31160;49.500;7.772;2023-11-18T02:13:29;7.70;99.90
13794;DHT22;31160;49.500;7.772;2023-11-18T02:15:57;7.70;99.90
13794;DHT22;31160;49.500;7.772;2023-11-18T02:18:25;7.70;99.90
13794;DHT22;31160;49.500;7.772;2023-11-18T02:20:54;7.70;99.90
13794;DHT22;31160;49.500;7.772;2023-11-18T02:23:24;7.70;99.90
13794;DHT22;31160;49.500;7.772;2023-11-18T02:25:53;7.70;99.90
13794;DHT22;31160;49.500;7.772;2023-11-18T02:28:20;7.70;99.90
13794;DHT22;31160;49.500;7.772;2023-11-18T02:30:46;7.70;99.90
13794;DHT22;31160;49.500;7.772;2023-11-18T02:33:27;7.70;99.90
13794;DHT22;31160;49.500;7.772;2023-11-18T02:36:02;7.80;99.90
13794;DHT22;31160;49.500;7.772;2023-11-18T02:38:35;7.70;99.90
13794;DHT22;31160;49.500;7.772;2023-11-18T02:41:10;7.80;99.90
13794;DHT22;31160;49.500;7.772;2023-11-18T02:43:39;7.80;99.90
13794;DHT22;31160;49.500;7.772;2023-11-18T02:46:08;7.70;99.90
13794;DHT22;31160;49.500;7.772;2023-11-18T02:48:37;7.70;99.90
13794;DHT22;31160;49.500;7.772;2023-11-18T02:51:04;7.70;99.90
13794;DHT22;31160;49.500;7.772;2023-11-18T02:53:34;7.70;99.90
13794;DHT22;31160;49.500;7.772;2023-11-18T02:56:01;7.80;99.90
13794;DHT22;31160;49.500;7.772;2023-11-18T02:58:31;7.80;99.90
13794;DHT22;31160;49.500;7.772;2023-11-18T03:00:59;7.70;99.90
13794;DHT22;31160;49.500;7.772;2023-11-18T03:03:26;7.50;99.90
13794;DHT22;31160;49.500;7.772;2023-11-18T03:05:56;7.50;99.90
13794;DHT22;31160;49.500;7.772;2023-11-18T03:08:23;7.60;99.90
13794;DHT22;31160;49.500;7.772;2023-11-18T03:10:51;7.60;99.90
13794;DHT22;31160;49.500;7.772;2023-11-18T03:13:19;7.60;99.90
13794;DHT22;31160;49.500;7.772;2023-11-18T03:15:46;7.60;99.90
13794;DHT22;31160;49.500;7.772;2023-11-18T03:18:15;7.60;99.90
13794;DHT22;31160;49.500;7.772;2023-11-18T03:20:42;7.70;99.90
13794;DHT22;31160;49.500;7.772;2023-11-18T03:23:09;7.60;99.90
13794;DHT22;31160;49.500;7.772;2023-11-18T03:25:36;7.60;99.90
13794;DHT22;31160;49.500;7.772;2023-11-18T03:28:04;7.60;99.90
13794;DHT22;31160;49.500;7.772;2023-11-18T03:30:33;7.60;99.90
13794;DHT22;31160;49.500;7.772;2023-11-18T03:33:02;7.40;99.90
13794;DHT22;31160;49.500;7.772;2023-11-18T03:35:28;7.40;99.90
13794;DHT22;31160;49.500;7.772;2023-11-18T03:37:56;7.40;99.90
13794;DHT22;31160;49.500;7.772;2023-11-18T03:40:23;7.40;99.90
13794;DHT22;31160;49.500;7.772;2023-11-18T03:42:50;7.40;99.90
13794;DHT22;31160;49.500;7.772;2023-11-18T03:45:17;7.50;99.90
13794;DHT22;31160;49.500;7.772;2023-11-18T03:47:45;7.40;99.90
13794;DHT22;31160;49.500;7.772;2023-11-18T03:50:12;7.50;99.90
13794;DHT22;31160;49.500;7.772;2023-11-18T03:52:40;7.40;99.90
13794;DHT22;31160;49.500;7.772;2023-11-18T03:55:08;7.40;99.90
13794;DHT22;31160;49.500;7.772;2023-11-18T03:57:35;7.30;99.90
13794;DHT22;31160;49.500;7.772;2023-11-18T04:00:02;7.30;99.90
13794;DHT22;31160;49.500;7.772;2023-11-18T04:02:35;7.40;99.90
13794;DHT22;31160;49.500;7.772;2023-11-18T04:05:03;7.50;99.90
13794;DHT22;31160;49.500;7.772;2023-11-18T04:07:30;7.30;99.90
13794;DHT22;31160;49.500;7.772;2023-11-18T04:09:57;7.10;99.90
13794;DHT22;31160;49.500;7.772;2023-11-18T04:12:24;7.20;99.90
13794;DHT22;31160;49.500;7.772;2023-11-18T04:14:50;7.30;99.90
13794;DHT22;31160;49.500;7.772;2023-11-18T04:17:17;7.30;99.90
13794;DHT22;31160;49.500;7.772;2023-11-18T04:19:44;7.30;99.90
13794;DHT22;31160;49.500;7.772;2023-11-18T04:22:12;7.30;99.90
13794;DHT22;31160;49.500;7.772;2023-11-18T04:24:38;7.40;99.90
13794;DHT22;31160;49.500;7.772;2023-11-18T04:27:05;7.20;99.90
13794;DHT22;31160;49.500;7.772;2023-11-18T04:29:32;7.20;99.90
13794;DHT22;31160;49.500;7.772;2023-11-18T04:31:59;7.30;99.90
13794;DHT22;31160;49.500;7.772;2023-11-18T04:34:26;7.30;99.90
13794;DHT22;31160;49.500;7.772;2023-11-18T04:36:53;7.30;99.90
13794;DHT22;31160;49.500;7.772;2023-11-18T04:39:20;7.30;99.90
13794;DHT22;31160;49.500;7.772;2023-11-18T04:41:49;7.40;99.90
13794;DHT22;31160;49.500;7.772;2023-11-18T04:44:15;7.40;99.90
13794;DHT22;31160;49.500;7.772;2023-11-18T04:46:43;7.40;99.90
13794;DHT22;31160;49.500;7.772;2023-11-18T04:49:11;7.40;99.90
13794;DHT22;31160;49.500;7.772;2023-11-18T04:51:38;7.40;99.90
13794;DHT22;31160;49.500;7.772;2023-11-18T04:54:05;7.30;99.90
13794;DHT22;31160;49.500;7.772;2023-11-18T04:56:34;7.20;99.90
13794;DHT22;31160;49.500;7.772;2023-11-18T04:59:04;7.20;99.90
13794;DHT22;31160;49.500;7.772;2023-11-18T05:01:32;7.20;99.90
13794;DHT22;31160;49.500;7.772;2023-11-18T05:03:59;7.20;99.90
13794;DHT22;31160;49.500;7.772;2023-11-18T05:06:26;7.00;99.90
13794;DHT22;31160;49.500;7.772;2023-11-18T05:08:53;7.00;99.90
13794;DHT22;31160;49.500;7.772;2023-11-18T05:11:20;7.10;99.90
13794;DHT22;31160;49.500;7.772;2023-11-18T05:13:46;7.20;99.90
13794;DHT22;31160;49.500;7.772;2023-11-18T05:16:13;7.20;99.90
13794;DHT22;31160;49.500;7.772;2023-11-18T05:18:40;7.20;99.90
13794;DHT22;31160;49.500;7.772;2023-11-18T05:21:07;7.30;99.90
13794;DHT22;31160;49.500;7.772;2023-11-18T05:23:34;7.20;99.90
13794;DHT22;31160;49.500;7.772;2023-11-18T05:26:04;7.30;99.90
13794;DHT22;31160;49.500;7.772;2023-11-18T05:28:32;7.20;99.90
13794;DHT22;31160;49.500;7.772;2023-11-18T05:30:59;7.30;99.90
13794;DHT22;31160;49.500;7.772;2023-11-18T05:33:28;7.30;99.90
13794;DHT22;31160;49.500;7.772;2023-11-18T05:35:55;7.30;99.90
13794;DHT22;31160;49.500;7.772;2023-11-18T05:38:22;7.20;99.90
13794;DHT22;31160;49.500;7.772;2023-11-18T05:40:50;7.20;99.90
13794;DHT22;31160;49.500;7.772;2023-11-18T05:43:31;7.20;99.90
13794;DHT22;31160;49.500;7.772;2023-11-18T05:46:07;7.20;99.90
13794;DHT22;31160;49.500;7.772;2023-11-18T05:48:52;7.20;99.90
13794;DHT22;31160;49.500;7.772;2023-11-18T05:51:24;6.90;99.90
13794;DHT22;31160;49.500;7.772;2023-11-18T05:53:52;6.80;99.90
13794;DHT22;31160;49.500;7.772;2023-11-18T05:56:19;6.90;99.90
13794;DHT22;31160;49.500;7.772;2023-11-18T05:58:48;7.00;99.90
13794;DHT22;31160;49.500;7.772;2023-11-18T06:01:16;7.00;99.90
13794;DHT22;31160;49.500;7.772;2023-11-18T06:03:43;7.10;99.90
13794;DHT22;31160;49.500;7.772;2023-11-18T06:06:12;7.20;99.90
13794;DHT22;31160;49.500;7.772;2023-11-18T06:08:40;7.20;99.90
13794;DHT22;31160;49.500;7.772;2023-11-18T06:11:11;7.10;99.90
13794;DHT22;31160;49.500;7.772;2023-11-18T06:13:48;7.20;99.90
13794;DHT22;31160;49.500;7.772;2023-11-18T06:16:17;7.10;99.90
13794;DHT22;31160;49.500;7.772;2023-11-18T06:18:48;7.00;99.90
13794;DHT22;31160;49.500;7.772;2023-11-18T06:21:17;6.80;99.90
13794;DHT22;31160;49.500;7.772;2023-11-18T06:23:45;7.00;99.90
13794;DHT22;31160;49.500;7.772;2023-11-18T06:26:14;7.00;99.90
13794;DHT22;31160;49.500;7.772;2023-11-18T06:28:46;7.10;99.90
13794;DHT22;31160;49.500;7.772;2023-11-18T06:31:13;7.10;99.90
13794;DHT22;31160;49.500;7.772;2023-11-18T06:33:45;7.20;99.90
13794;DHT22;31160;49.500;7.772;2023-11-18T06:38:45;7.20;99.90
13794;DHT22;31160;49.500;7.772;2023-11-18T06:41:13;7.20;99.90
13794;DHT22;31160;49.500;7.772;2023-11-18T06:43:43;7.20;99.90
13794;DHT22;31160;49.500;7.772;2023-11-18T06:46:28;7.20;99.90
13794;DHT22;31160;49.500;7.772;2023-11-18T06:49:01;7.20;99.90
13794;DHT22;31160;49.500;7.772;2023-11-18T06:51:34;7.20;99.90
13794;DHT22;31160;49.500;7.772;2023-11-18T06:54:06;7.30;99.90
13794;DHT22;31160;49.500;7.772;2023-11-18T06:56:41;7.30;99.90
13794;DHT22;31160;49.500;7.772;2023-11-18T06:59:12;7.30;99.90
13794;DHT22;31160;49.500;7.772;2023-11-18T07:01:41;7.30;99.90
13794;DHT22;31160;49.500;7.772;2023-11-18T07:04:09;7.20;99.90
13794;DHT22;31160;49.500;7.772;2023-11-18T07:06:37;7.30;99.90
13794;DHT22;31160;49.500;7.772;2023-11-18T07:09:08;7.20;99.90
13794;DHT22;31160;49.500;7.772;2023-11-18T07:11:47;7.10;99.90
13794;DHT22;31160;49.500;7.772;2023-11-18T07:14:15;7.10;99.90
13794;DHT22;31160;49.500;7.772;2023-11-18T07:16:43;7.10;99.90
13794;DHT22;31160;49.500;7.772;2023-11-18T07:19:11;7.20;99.90
13794;DHT22;31160;49.500;7.772;2023-11-18T07:21:49;7.30;99.90
13794;DHT22;31160;49.500;7.772;2023-11-18T07:24:17;7.30;99.90
13794;DHT22;31160;49.500;7.772;2023-11-18T07:26:44;7.30;99.90
13794;DHT22;31160;49.500;7.772;2023-11-18T07:29:12;7.20;99.90
13794;DHT22;31160;49.500;7.772;2023-11-18T07:31:38;7.30;99.90
13794;DHT22;31160;49.500;7.772;2023-11-18T07:34:05;7.20;99.90
13794;DHT22;31160;49.500;7.772;2023-11-18T07:36:32;7.20;99.90
13794;DHT22;31160;49.500;7.772;2023-11-18T07:38:59;7.20;99.90
13794;DHT22;31160;49.500;7.772;2023-11-18T07:41:33;7.20;99.90
13794;DHT22;31160;49.500;7.772;2023-11-18T07:44:00;7.30;99.90
13794;DHT22;31160;49.500;7.772;2023-11-18T07:46:28;7.30;99.90
13794;DHT22;31160;49.500;7.772;2023-11-18T07:48:57;7.40;99.90
13794;DHT22;31160;49.500;7.772;2023-11-18T07:51:24;7.40;99.90
13794;DHT22;31160;49.500;7.772;2023-11-18T07:53:51;7.50;99.90
13794;DHT22;31160;49.500;7.772;2023-11-18T07:56:19;7.50;99.90
13794;DHT22;31160;49.500;7.772;2023-11-18T07:58:49;7.50;99.90
13794;DHT22;31160;49.500;7.772;2023-11-18T08:01:17;7.60;99.90
13794;DHT22;31160;49.500;7.772;2023-11-18T08:03:44;7.60;99.90
13794;DHT22;31160;49.500;7.772;2023-11-18T08:06:11;7.70;99.90
13794;DHT22;31160;49.500;7.772;2023-11-18T08:08:39;7.70;99.90
13794;DHT22;31160;49.500;7.772;2023-11-18T08:11:06;7.70;99.90
13794;DHT22;31160;49.500;7.772;2023-11-18T08:13:33;7.70;99.90
13794;DHT22;31160;49.500;7.772;2023-11-18T08:15:59;7.80;99.90
13794;DHT22;31160;49.500;7.772;2023-11-18T08:18:26;7.70;99.90
13794;DHT22;31160;49.500;7.772;2023-11-18T08:20:54;7.60;99.90
13794;DHT22;31160;49.500;7.772;2023-11-18T08:23:21;7.60;99.90
13794;DHT22;31160;49.500;7.772;2023-11-18T08:25:48;7.80;99.90
13794;DHT22;31160;49.500;7.772;2023-11-18T08:28:17;7.90;99.90
13794;DHT22;31160;49.500;7.772;2023-11-18T08:30:44;7.90;99.90
13794;DHT22;31160;49.500;7.772;2023-11-18T08:33:11;7.90;99.90
13794;DHT22;31160;49.500;7.772;2023-11-18T08:35:38;8.00;99.90
13794;DHT22;31160;49.500;7.772;2023-11-18T08:38:05;8.00;99.90
13794;DHT22;31160;49.500;7.772;2023-11-18T08:40:34;8.10;99.90
13794;DHT22;31160;49.500;7.772;2023-11-18T08:43:02;8.20;99.90
13794;DHT22;31160;49.500;7.772;2023-11-18T08:45:34;8.30;99.90
13794;DHT22;31160;49.500;7.772;2023-11-18T08:48:03;8.40;99.90
13794;DHT22;31160;49.500;7.772;2023-11-18T08:50:36;8.50;99.90
13794;DHT22;31160;49.500;7.772;2023-11-18T08:53:03;8.50;99.90
13794;DHT22;31160;49.500;7.772;2023-11-18T08:55:36;8.60;99.90
13794;DHT22;31160;49.500;7.772;2023-11-18T08:58:10;8.50;99.90
13794;DHT22;31160;49.500;7.772;2023-11-18T09:00:48;8.60;99.90
13794;DHT22;31160;49.500;7.772;2023-11-18T09:03:16;8.80;99.90
13794;DHT22;31160;49.500;7.772;2023-11-18T09:06:06;8.90;99.90
13794;DHT22;31160;49.500;7.772;2023-11-18T09:08:48;8.90;99.90
13794;DHT22;31160;49.500;7.772;2023-11-18T09:11:23;9.00;99.90
13794;DHT22;31160;49.500;7.772;2023-11-18T09:13:53;9.10;99.90
13794;DHT22;31160;49.500;7.772;2023-11-18T09:16:21;9.20;99.90
13794;DHT22;31160;49.500;7.772;2023-11-18T09:18:49;9.20;99.90
13794;DHT22;31160;49.500;7.772;2023-11-18T09:21:17;9.30;99.90
13794;DHT22;31160;49.500;7.772;2023-11-18T09:23:51;9.30;99.90
13794;DHT22;31160;49.500;7.772;2023-11-18T09:26:18;9.30;99.90
13794;DHT22;31160;49.500;7.772;2023-11-18T09:28:45;9.20;99.90
13794;DHT22;31160;49.500;7.772;2023-11-18T09:31:12;9.20;99.90
13794;DHT22;31160;49.500;7.772;2023-11-18T09:33:40;9.20;99.90
13794;DHT22;31160;49.500;7.772;2023-11-18T09:36:11;9.30;99.90
13794;DHT22;31160;49.500;7.772;2023-11-18T09:38:41;9.30;99.90
13794;DHT22;31160;49.500;7.772;2023-11-18T09:41:10;9.10;99.90
13794;DHT22;31160;49.500;7.772;2023-11-18T09:43:42;9.20;99.90
13794;DHT22;31160;49.500;7.772;2023-11-18T09:46:10;9.30;99.90
13794;DHT22;31160;49.500;7.772;2023-11-18T09:48:50;9.20;99.90
13794;DHT22;31160;49.500;7.772;2023-11-18T09:51:27;9.10;99.90
13794;DHT22;31160;49.500;7.772;2023-11-18T09:54:01;9.10;99.90
13794;DHT22;31160;49.500;7.772;2023-11-18T09:56:49;9.20;99.90
13794;DHT22;31160;49.500;7.772;2023-11-18T09:59:31;9.20;99.90
13794;DHT22;31160;49.500;7.772;2023-11-18T10:02:02;9.00;99.90
13794;DHT22;31160;49.500;7.772;2023-11-18T10:04:33;8.90;99.90
13794;DHT22;31160;49.500;7.772;2023-11-18T10:07:05;9.10;99.90
13794;DHT22;31160;49.500;7.772;2023-11-18T10:09:33;9.10;99.90
13794;DHT22;31160;49.500;7.772;2023-11-18T10:12:09;9.20;99.90
13794;DHT22;31160;49.500;7.772;2023-11-18T10:14:41;9.40;99.90
13794;DHT22;31160;49.500;7.772;2023-11-18T10:17:10;9.10;99.90
13794;DHT22;31160;49.500;7.772;2023-11-18T10:19:54;9.10;99.90
13794;DHT22;31160;49.500;7.772;2023-11-18T10:22:27;9.20;99.90
13794;DHT22;31160;49.500;7.772;2023-11-18T10:24:58;9.20;99.90
13794;DHT22;31160;49.500;7.772;2023-11-18T10:27:27;9.20;99.90
13794;DHT22;31160;49.500;7.772;2023-11-18T10:30:01;9.20;99.90
13794;DHT22;31160;49.500;7.772;2023-11-18T10:32:29;9.30;99.90
13794;DHT22;31160;49.500;7.772;2023-11-18T10:34:57;9.00;99.90
13794;DHT22;31160;49.500;7.772;2023-11-18T10:37:27;9.10;99.90
13794;DHT22;31160;49.500;7.772;2023-11-18T10:40:03;9.00;99.90
13794;DHT22;31160;49.500;7.772;2023-11-18T10:42:30;9.00;99.90
13794;DHT22;31160;49.500;7.772;2023-11-18T10:44:59;9.00;99.90
13794;DHT22;31160;49.500;7.772;2023-11-18T10:47:34;9.10;99.90
13794;DHT22;31160;49.500;7.772;2023-11-18T10:50:06;9.20;99.90
13794;DHT22;31160;49.500;7.772;2023-11-18T10:52:36;9.00;99.90
13794;DHT22;31160;49.500;7.772;2023-11-18T10:55:07;8.90;99.90
13794;DHT22;31160;49.500;7.772;2023-11-18T10:57:40;8.80;99.90
13794;DHT22;31160;49.500;7.772;2023-11-18T11:00:09;8.90;99.90
13794;DHT22;31160;49.500;7.772;2023-11-18T11:02:46;9.00;99.90
13794;DHT22;31160;49.500;7.772;2023-11-18T11:05:29;9.00;99.90
13794;DHT22;31160;49.500;7.772;2023-11-18T11:08:01;8.80;99.90
13794;DHT22;31160;49.500;7.772;2023-11-18T11:10:29;8.80;99.90
13794;DHT22;31160;49.500;7.772;2023-11-18T11:13:00;8.90;99.90
13794;DHT22;31160;49.500;7.772;2023-11-18T11:15:40;9.10;99.90
13794;DHT22;31160;49.500;7.772;2023-11-18T11:18:21;9.20;99.90
13794;DHT22;31160;49.500;7.772;2023-11-18T11:23:47;9.10;99.90
13794;DHT22;31160;49.500;7.772;2023-11-18T11:26:28;9.00;99.90
13794;DHT22;31160;49.500;7.772;2023-11-18T11:29:27;8.90;99.90
13794;DHT22;31160;49.500;7.772;2023-11-18T11:32:09;9.00;99.90
13794;DHT22;31160;49.500;7.772;2023-11-18T11:34:53;9.00;99.90
13794;DHT22;31160;49.500;7.772;2023-11-18T11:37:24;9.10;99.90
13794;DHT22;31160;49.500;7.772;2023-11-18T11:39:53;9.20;99.90
13794;DHT22;31160;49.500;7.772;2023-11-18T11:42:20;9.20;99.90
13794;DHT22;31160;49.500;7.772;2023-11-18T11:44:49;9.30;99.90
13794;DHT22;31160;49.500;7.772;2023-11-18T11:47:19;9.30;99.90
13794;DHT22;31160;49.500;7.772;2023-11-18T11:50:02;9.30;99.90
13794;DHT22;31160;49.500;7.772;2023-11-18T11:52:42;9.30;99.90
13794;DHT22;31160;49.500;7.772;2023-11-18T11:55:33;9.20;99.90
13794;DHT22;31160;49.500;7.772;2023-11-18T11:58:03;9.20;99.90
13794;DHT22;31160;49.500;7.772;2023-11-18T12:00:29;9.20;99.90
13794;DHT22;31160;49.500;7.772;2023-11-18T12:03:02;9.10;99.90
13794;DHT22;31160;49.500;7.772;2023-11-18T12:05:31;9.20;99.90
13794;DHT22;31160;49.500;7.772;2023-11-18T12:08:00;9.20;99.90
13794;DHT22;31160;49.500;7.772;2023-11-18T12:10:30;9.10;99.90
13794;DHT22;31160;49.500;7.772;2023-11-18T12:13:10;9.10;99.90
13794;DHT22;31160;49.500;7.772;2023-11-18T12:18:22;9.10;99.90
13794;DHT22;31160;49.500;7.772;2023-11-18T12:20:49;9.10;99.90
13794;DHT22;31160;49.500;7.772;2023-11-18T12:23:21;9.10;99.90
13794;DHT22;31160;49.500;7.772;2023-11-18T12:25:51;8.80;99.90
13794;DHT22;31160;49.500;7.772;2023-11-18T12:30:54;9.10;99.90
13794;DHT22;31160;49.500;7.772;2023-11-18T12:33:25;9.20;99.90
13794;DHT22;31160;49.500;7.772;2023-11-18T12:41:37;8.90;99.90
13794;DHT22;31160;49.500;7.772;2023-11-18T12:44:29;9.20;99.90
13794;DHT22;31160;49.500;7.772;2023-11-18T12:46:59;9.10;99.90
13794;DHT22;31160;49.500;7.772;2023-11-18T12:49:41;9.00;99.90
13794;DHT22;31160;49.500;7.772;2023-11-18T12:52:10;8.90;99.90
13794;DHT22;31160;49.500;7.772;2023-11-18T12:54:38;8.90;99.90
13794;DHT22;31160;49.500;7.772;2023-11-18T12:57:08;9.00;99.90
13794;DHT22;31160;49.500;7.772;2023-11-18T12:59:34;8.80;99.90
13794;DHT22;31160;49.500;7.772;2023-11-18T13:02:02;8.80;99.90
13794;DHT22;31160;49.500;7.772;2023-11-18T13:04:31;8.80;99.90
13794;DHT22;31160;49.500;7.772;2023-11-18T13:06:58;8.70;99.90
13794;DHT22;31160;49.500;7.772;2023-11-18T13:09:26;8.80;99.90
13794;DHT22;31160;49.500;7.772;2023-11-18T13:11:59;9.00;99.90
13794;DHT22;31160;49.500;7.772;2023-11-18T13:14:33;8.90;99.90
13794;DHT22;31160;49.500;7.772;2023-11-18T13:17:04;8.80;99.90
13794;DHT22;31160;49.500;7.772;2023-11-18T13:19:35;8.90;99.90
13794;DHT22;31160;49.500;7.772;2023-11-18T13:22:06;8.90;99.90
13794;DHT22;31160;49.500;7.772;2023-11-18T13:24:37;8.90;99.90
13794;DHT22;31160;49.500;7.772;2023-11-18T13:27:12;8.80;99.90
13794;DHT22;31160;49.500;7.772;2023-11-18T13:29:44;8.60;99.90
13794;DHT22;31160;49.500;7.772;2023-11-18T13:32:12;8.50;99.90
13794;DHT22;31160;49.500;7.772;2023-11-18T13:34:39;8.70;99.90
13794;DHT22;31160;49.500;7.772;2023-11-18T13:37:09;8.80;99.90
13794;DHT22;31160;49.500;7.772;2023-11-18T13:39:39;8.90;99.90
13794;DHT22;31160;49.500;7.772;2023-11-18T13:42:23;8.80;99.90
13794;DHT22;31160;49.500;7.772;2023-11-18T13:44:50;9.00;99.90
13794;DHT22;31160;49.500;7.772;2023-11-18T13:47:20;9.00;99.90
13794;DHT22;31160;49.500;7.772;2023-11-18T13:49:50;9.10;99.90
13794;DHT22;31160;49.500;7.772;2023-11-18T13:52:17;9.10;99.90
13794;DHT22;31160;49.500;7.772;2023-11-18T13:54:47;9.20;99.90
13794;DHT22;31160;49.500;7.772;2023-11-18T13:57:14;9.10;99.90
13794;DHT22;31160;49.500;7.772;2023-11-18T13:59:41;9.10;99.90
13794;DHT22;31160;49.500;7.772;2023-11-18T14:02:11;8.90;99.90
13794;DHT22;31160;49.500;7.772;2023-11-18T14:04:39;8.80;99.90
13794;DHT22;31160;49.500;7.772;2023-11-18T14:07:06;8.80;99.90
13794;DHT22;31160;49.500;7.772;2023-11-18T14:09:33;8.80;99.90
13794;DHT22;31160;49.500;7.772;2023-11-18T14:12:07;8.70;99.90
13794;DHT22;31160;49.500;7.772;2023-11-18T14:14:34;8.70;99.90
13794;DHT22;31160;49.500;7.772;2023-11-18T14:17:01;8.70;99.90
13794;DHT22;31160;49.500;7.772;2023-11-18T14:19:28;8.70;99.90
13794;DHT22;31160;49.500;7.772;2023-11-18T14:21:58;8.70;99.90
13794;DHT22;31160;49.500;7.772;2023-11-18T14:24:25;8.80;99.90
13794;DHT22;31160;49.500;7.772;2023-11-18T14:26:55;8.80;99.90
13794;DHT22;31160;49.500;7.772;2023-11-18T14:29:23;8.80;99.90
13794;DHT22;31160;49.500;7.772;2023-11-18T14:31:54;8.90;99.90
13794;DHT22;31160;49.500;7.772;2023-11-18T14:34:21;8.80;99.90
13794;DHT22;31160;49.500;7.772;2023-11-18T14:36:48;8.90;99.90
13794;DHT22;31160;49.500;7.772;2023-11-18T14:39:15;8.80;99.90
13794;DHT22;31160;49.500;7.772;2023-11-18T14:41:47;8.70;99.90
13794;DHT22;31160;49.500;7.772;2023-11-18T14:44:14;8.90;99.90
13794;DHT22;31160;49.500;7.772;2023-11-18T14:46:41;8.90;99.90
13794;DHT22;31160;49.500;7.772;2023-11-18T14:49:08;8.90;99.90
13794;DHT22;31160;49.500;7.772;2023-11-18T14:51:36;8.90;99.90
13794;DHT22;31160;49.500;7.772;2023-11-18T14:54:03;8.70;99.90
13794;DHT22;31160;49.500;7.772;2023-11-18T14:56:32;8.70;99.90
13794;DHT22;31160;49.500;7.772;2023-11-18T14:58:59;8.70;99.90
13794;DHT22;31160;49.500;7.772;2023-11-18T15:01:27;8.70;99.90
13794;DHT22;31160;49.500;7.772;2023-11-18T15:03:55;8.80;99.90
13794;DHT22;31160;49.500;7.772;2023-11-18T15:06:27;8.70;99.90
13794;DHT22;31160;49.500;7.772;2023-11-18T15:08:54;8.70;99.90
13794;DHT22;31160;49.500;7.772;2023-11-18T15:11:23;8.70;99.90
13794;DHT22;31160;49.500;7.772;2023-11-18T15:13:51;8.50;99.90
13794;DHT22;31160;49.500;7.772;2023-11-18T15:16:20;8.40;99.90
13794;DHT22;31160;49.500;7.772;2023-11-18T15:18:47;8.30;99.90
13794;DHT22;31160;49.500;7.772;2023-11-18T15:21:14;8.20;99.90
13794;DHT22;31160;49.500;7.772;2023-11-18T15:23:42;8.20;99.90
13794;DHT22;31160;49.500;7.772;2023-11-18T15:26:09;8.10;99.90
13794;DHT22;31160;49.500;7.772;2023-11-18T15:28:36;8.10;99.90
13794;DHT22;31160;49.500;7.772;2023-11-18T15:31:03;8.10;99.90
13794;DHT22;31160;49.500;7.772;2023-11-18T15:33:31;8.10;99.90
13794;DHT22;31160;49.500;7.772;2023-11-18T15:35:58;8.00;99.90
13794;DHT22;31160;49.500;7.772;2023-11-18T15:38:25;8.00;99.90
13794;DHT22;31160;49.500;7.772;2023-11-18T15:40:52;8.00;99.90
13794;DHT22;31160;49.500;7.772;2023-11-18T15:43:19;8.00;99.90
13794;DHT22;31160;49.500;7.772;2023-11-18T15:45:46;8.00;99.90
13794;DHT22;31160;49.500;7.772;2023-11-18T15:48:13;8.10;99.90
13794;DHT22;31160;49.500;7.772;2023-11-18T15:50:41;8.00;99.90
13794;DHT22;31160;49.500;7.772;2023-11-18T15:53:08;8.00;99.90
13794;DHT22;31160;49.500;7.772;2023-11-18T15:55:35;8.10;99.90
13794;DHT22;31160;49.500;7.772;2023-11-18T15:58:05;8.10;99.90
13794;DHT22;31160;49.500;7.772;2023-11-18T16:00:31;8.10;99.90
13794;DHT22;31160;49.500;7.772;2023-11-18T16:02:59;8.20;99.90
13794;DHT22;31160;49.500;7.772;2023-11-18T16:05:29;8.20;99.90
13794;DHT22;31160;49.500;7.772;2023-11-18T16:08:02;8.20;99.90
13794;DHT22;31160;49.500;7.772;2023-11-18T16:10:29;8.20;99.90
13794;DHT22;31160;49.500;7.772;2023-11-18T16:12:57;8.20;99.90
13794;DHT22;31160;49.500;7.772;2023-11-18T16:15:27;8.20;99.90
13794;DHT22;31160;49.500;7.772;2023-11-18T16:17:56;8.10;99.90